Tallahassee, FL (32316)

8:06 AM EDT on September 16, 2014 (GMT -0400)
SAIL High WeatherSTEM | Change Station
CLOSE
Current Station
Personal Weather Station
Location: Tallahassee, FL
Elevation: 118 ft
Nearby Weather Stations

Elev 118 ft 30.44 °N, 84.32 °W | Updated 6 minutes ago

Overcast
Overcast
75.8 °F
Feels Like 75 °F
N
0.0
Wind Variable Wind from WNW
Gusts 2.0 mph

Today
High -- | Low -- °F
--% Chance of Precip.
Yesterday
High -- | Low -- °F
Precip. -- in
7:22 AM 7:41 PM
Last Quarter, 46% visible
Pressure 30.07 in
Visibility 10.0 miles
Clouds Few 1700 ft
Scattered Clouds 4200 ft
Mostly Cloudy 6000 ft
Heat Index 75 °F
Dew Point 75 °F
Humidity 96%
Rainfall 0.00 in
Snow Depth Not available.
UV 0.0 out of 12
Pollen 3.80 out of 12
Air Quality Not available.
Flu Activity Not available.
METAR KTLH 161153Z 00000KT 10SM FEW017 SCT042 BKN060 24/23 A3007 RMK AO2 SLP181 60000 70064 T02440233 10250 20244 53005 $

More Conditions Fewer Conditions

Pressure 30.07 in
Visibility 10.0 miles
Clouds Few 1700 ft
Scattered Clouds 4200 ft
Mostly Cloudy 6000 ft
Heat Index 75 °F
Dew Point 75 °F
Humidity 96%
Rainfall 0.00 in
Snow Depth Not available.
UV 0.0 out of 12
Pollen 3.80 out of 12
Air Quality Not available.
Flu Activity Not available.
METAR KTLH 161153Z 00000KT 10SM FEW017 SCT042 BKN060 24/23 A3007 RMK AO2 SLP181 60000 70064 T02440233 10250 20244 53005 $

More Conditions Fewer Conditions

10-Day Weather Forecast

Almanac

Astronomy

Sep. 16, 2014 Rise Set
Actual Time 7:22 AM EDT 7:41 PM EDT
Civil Twilight 6:58 AM EDT 8:05 PM EDT
Nautical Twilight 6:30 AM EDT 8:33 PM EDT
Astronomical Twilight 6:01 AM EDT 9:02 PM EDT
Moon 12:48 AM EDT 2:46 PM EDT
Length of Visible Light 13h 07m
Length of Day
12h 19m
Tomorrow will be 1m 49s shorter.
Last Quarter, 46% of the Moon is Illuminated
Today
Last Quarter
Sep 24
New
Oct 1
First Quarter
Oct 8
Full
Oct 15
Last Quarter

Today's Extremes

State Highs State Lows

Community

WunderPhotos

Upload Photos

1,753,725 photos uploaded!

Nearby

Snow Depth

Station Depth Elevation
No new snow has been reported.

Earthquake Activity

City Distance Mag. Time & Date
No recent earthquake activity has been reported nearby.
Minimum magnitude displayed is 2.5.

Coastal Water Temperatures

Place Temperature
Apalachicola, FL 84.9 °F
Panama City, FL 86.0 °F

Nearby Weather Stations